KLNSKTHV

Guest
Details From KLNS - Lancaster
To KTHV - YORK
Flight Number -
Tags generated
Created
Modified
Stats Distance 29 nm / 54 km
Max Altitude 1,000 ft / 305 m
Waypoints 3
Social Downloads 1
Likes 0
Share VATSIM

Download

Looking for another format? Having issues loading an existing format? Contact us
Advertisement - Login to hide

Notes

Basic altitude profile: - Ascent Rate: 2500ft/min - Ascent Speed: 250kts - Cruise Altitude: 35000ft - Cruise Speed: 420kts - Descent Rate: 1500ft/min - Descent Speed: 250kts

Route

KLNS GRAMO KTHV

ID Type Via Altitude Latitude Longitude Leg Dist Tot Dist Heading (true) Name
O KLNS APT - 0 ft / 0 m 40.12195˚ -76.29498˚ - 0 nm - Lancaster
GRAMO FIX - 1,000 ft / 305 m 39.96246˚ -76.78234˚ 24 nm 24 nm 247° / 247° -
O KTHV APT - 0 ft / 0 m 39.91700˚ -76.87303˚ 4 nm 29 nm 237° / 237° YORK

Altitude Profile

Advertisement - Login to hide

KLNS

Details ICAO KLNS (LNS)
Name Lancaster
Region United States
Timezone America/New_York (UTC-5.0)
Stats Elevation 403 ft / 123 m (AMSL)
Location 40.121953° -76.294980°
Runways 2
Magnetic Variation 11.529° W

METAR

KLNS 150653Z AUTO 00000KT 10SM CLR M07/M12 A3009 RMK AO2 SLP195 T10721122

Decode

TAF

KLNS 150558Z 1506/1606 00000KT P6SM SKC FM151400 23006KT P6SM BKN080 FM151800 25004KT P6SM VCSH BKN035

Decode

Departure Runways

ID Width Length Bearing (true) Bearing (mag) Surface Threshold Offset Overrun Length
08 150 ft / 46 m 6,922 ft / 2,110 m 67.89° 79.42° Asphalt 200 ft / 61 m 0 ft / 0 m
13 100 ft / 30 m 4,096 ft / 1,248 m 119.30° 130.83° Asphalt 0 ft / 0 m 0 ft / 0 m
26 150 ft / 46 m 6,922 ft / 2,110 m 247.91° 259.44° Asphalt 459 ft / 140 m 0 ft / 0 m
31 100 ft / 30 m 4,096 ft / 1,248 m 299.31° 310.84° Asphalt 0 ft / 0 m 0 ft / 0 m

KTHV

Details ICAO KTHV
Name YORK
Region United States
Timezone America/New_York (UTC-5.0)
Stats Elevation 480 ft / 146 m (AMSL)
Location 39.916995° -76.873026°
Runways 1
Magnetic Variation 11.148° W

METAR

KTHV 150653Z AUTO 00000KT 10SM CLR M07/M09 A3009 RMK AO2 SLP198 T10721094

Decode

TAF

Not found

Destination Runways

ID Width Length Bearing (true) Bearing (mag) Surface Threshold Offset Overrun Length
17 100 ft / 30 m 5,194 ft / 1,583 m 155.44° 166.59° Asphalt 800 ft / 244 m 0 ft / 0 m
35 100 ft / 30 m 5,194 ft / 1,583 m 335.44° 346.59° Asphalt 740 ft / 226 m 0 ft / 0 m